sensor_id;sensor_type;location;lat;lon;timestamp;P1;durP1;ratioP1;P2;durP2;ratioP2
58306;SDS011;44116;50.884;4.768;2024-02-21T00:01:27;29.8;;;13.1;;
58306;SDS011;44116;50.884;4.768;2024-02-21T00:03:27;32.2;;;13.5;;
58306;SDS011;44116;50.884;4.768;2024-02-21T00:05:27;32.2;;;15.0;;
58306;SDS011;44116;50.884;4.768;2024-02-21T00:07:26;28.1;;;13.2;;
58306;SDS011;44116;50.884;4.768;2024-02-21T00:09:26;29.9;;;14.2;;
58306;SDS011;44116;50.884;4.768;2024-02-21T00:11:26;30.2;;;14.0;;
58306;SDS011;44116;50.884;4.768;2024-02-21T00:13:25;31.4;;;13.9;;
58306;SDS011;44116;50.884;4.768;2024-02-21T00:15:25;31.6;;;13.4;;
58306;SDS011;44116;50.884;4.768;2024-02-21T00:17:25;29.9;;;13.6;;
58306;SDS011;44116;50.884;4.768;2024-02-21T00:19:24;27.5;;;13.8;;
58306;SDS011;44116;50.884;4.768;2024-02-21T00:21:24;26.8;;;13.1;;
58306;SDS011;44116;50.884;4.768;2024-02-21T00:23:24;26.6;;;12.7;;
58306;SDS011;44116;50.884;4.768;2024-02-21T00:25:23;29.2;;;13.7;;
58306;SDS011;44116;50.884;4.768;2024-02-21T00:27:23;28.7;;;13.5;;
58306;SDS011;44116;50.884;4.768;2024-02-21T00:29:23;28.5;;;13.1;;
58306;SDS011;44116;50.884;4.768;2024-02-21T00:31:22;29.2;;;13.0;;
58306;SDS011;44116;50.884;4.768;2024-02-21T00:33:22;29.2;;;13.8;;
58306;SDS011;44116;50.884;4.768;2024-02-21T00:35:22;27.6;;;13.1;;
58306;SDS011;44116;50.884;4.768;2024-02-21T00:39:21;26.0;;;12.3;;
58306;SDS011;44116;50.884;4.768;2024-02-21T00:41:43;30.2;;;13.0;;
58306;SDS011;44116;50.884;4.768;2024-02-21T00:43:20;29.4;;;14.1;;
58306;SDS011;44116;50.884;4.768;2024-02-21T00:45:20;28.4;;;12.4;;
58306;SDS011;44116;50.884;4.768;2024-02-21T00:47:20;29.1;;;13.1;;
58306;SDS011;44116;50.884;4.768;2024-02-21T00:49:19;27.3;;;12.5;;
58306;SDS011;44116;50.884;4.768;2024-02-21T00:51:19;24.7;;;11.7;;
58306;SDS011;44116;50.884;4.768;2024-02-21T00:53:19;25.7;;;12.1;;
58306;SDS011;44116;50.884;4.768;2024-02-21T00:55:19;25.2;;;12.7;;
58306;SDS011;44116;50.884;4.768;2024-02-21T00:57:18;28.3;;;12.2;;
58306;SDS011;44116;50.884;4.768;2024-02-21T00:59:18;38.2;;;12.9;;
58306;SDS011;44116;50.884;4.768;2024-02-21T01:01:21;28.8;;;12.6;;
58306;SDS011;44116;50.884;4.768;2024-02-21T01:03:17;26.0;;;11.6;;
58306;SDS011;44116;50.884;4.768;2024-02-21T01:05:17;30.6;;;12.5;;
58306;SDS011;44116;50.884;4.768;2024-02-21T01:07:16;26.6;;;12.0;;
58306;SDS011;44116;50.884;4.768;2024-02-21T01:09:16;26.2;;;12.3;;
58306;SDS011;44116;50.884;4.768;2024-02-21T01:11:16;26.2;;;12.1;;
58306;SDS011;44116;50.884;4.768;2024-02-21T01:13:15;27.6;;;11.6;;
58306;SDS011;44116;50.884;4.768;2024-02-21T01:15:15;23.3;;;10.9;;
58306;SDS011;44116;50.884;4.768;2024-02-21T01:17:15;26.5;;;11.7;;
58306;SDS011;44116;50.884;4.768;2024-02-21T01:19:14;28.8;;;12.1;;
58306;SDS011;44116;50.884;4.768;2024-02-21T01:21:14;25.7;;;11.9;;
58306;SDS011;44116;50.884;4.768;2024-02-21T01:23:14;25.4;;;11.4;;
58306;SDS011;44116;50.884;4.768;2024-02-21T01:25:13;24.2;;;11.6;;
58306;SDS011;44116;50.884;4.768;2024-02-21T01:27:13;27.1;;;11.8;;
58306;SDS011;44116;50.884;4.768;2024-02-21T01:29:15;27.8;;;12.4;;
58306;SDS011;44116;50.884;4.768;2024-02-21T01:31:12;26.5;;;11.8;;
58306;SDS011;44116;50.884;4.768;2024-02-21T01:33:12;23.7;;;11.3;;
58306;SDS011;44116;50.884;4.768;2024-02-21T01:35:12;28.2;;;11.1;;
58306;SDS011;44116;50.884;4.768;2024-02-21T01:39:11;30.5;;;11.6;;
58306;SDS011;44116;50.884;4.768;2024-02-21T01:41:11;25.7;;;10.5;;
58306;SDS011;44116;50.884;4.768;2024-02-21T01:43:19;26.2;;;10.6;;
58306;SDS011;44116;50.884;4.768;2024-02-21T01:45:10;23.9;;;10.2;;
58306;SDS011;44116;50.884;4.768;2024-02-21T01:47:10;23.4;;;10.3;;
58306;SDS011;44116;50.884;4.768;2024-02-21T01:49:09;23.5;;;9.9;;
58306;SDS011;44116;50.884;4.768;2024-02-21T01:51:09;22.6;;;10.0;;
58306;SDS011;44116;50.884;4.768;2024-02-21T01:55:09;23.6;;;9.1;;
58306;SDS011;44116;50.884;4.768;2024-02-21T01:57:08;19.0;;;9.4;;
58306;SDS011;44116;50.884;4.768;2024-02-21T01:59:08;23.9;;;10.3;;
58306;SDS011;44116;50.884;4.768;2024-02-21T02:01:07;22.0;;;10.2;;
58306;SDS011;44116;50.884;4.768;2024-02-21T02:03:07;21.8;;;10.0;;
58306;SDS011;44116;50.884;4.768;2024-02-21T02:05:07;20.1;;;9.1;;
58306;SDS011;44116;50.884;4.768;2024-02-21T02:07:07;18.1;;;9.0;;
58306;SDS011;44116;50.884;4.768;2024-02-21T02:11:06;22.7;;;9.8;;
58306;SDS011;44116;50.884;4.768;2024-02-21T02:13:05;21.9;;;10.0;;
58306;SDS011;44116;50.884;4.768;2024-02-21T02:15:06;18.3;;;8.7;;
58306;SDS011;44116;50.884;4.768;2024-02-21T02:17:05;18.9;;;9.3;;
58306;SDS011;44116;50.884;4.768;2024-02-21T02:19:04;19.8;;;9.2;;
58306;SDS011;44116;50.884;4.768;2024-02-21T02:21:05;21.2;;;10.0;;
58306;SDS011;44116;50.884;4.768;2024-02-21T02:23:07;24.4;;;10.1;;
58306;SDS011;44116;50.884;4.768;2024-02-21T02:27:03;23.5;;;9.9;;
58306;SDS011;44116;50.884;4.768;2024-02-21T02:29:03;27.0;;;10.4;;
58306;SDS011;44116;50.884;4.768;2024-02-21T02:33:02;22.4;;;9.9;;
58306;SDS011;44116;50.884;4.768;2024-02-21T02:35:02;28.8;;;11.1;;
58306;SDS011;44116;50.884;4.768;2024-02-21T02:37:02;21.6;;;9.8;;
58306;SDS011;44116;50.884;4.768;2024-02-21T02:39:01;25.3;;;10.5;;
58306;SDS011;44116;50.884;4.768;2024-02-21T02:41:01;24.4;;;9.8;;
58306;SDS011;44116;50.884;4.768;2024-02-21T02:43:01;24.8;;;9.9;;
58306;SDS011;44116;50.884;4.768;2024-02-21T02:45:00;31.1;;;10.6;;
58306;SDS011;44116;50.884;4.768;2024-02-21T02:47:00;20.7;;;9.7;;
58306;SDS011;44116;50.884;4.768;2024-02-21T02:48:59;26.2;;;10.4;;
58306;SDS011;44116;50.884;4.768;2024-02-21T02:50:59;25.6;;;9.7;;
58306;SDS011;44116;50.884;4.768;2024-02-21T02:52:59;24.8;;;9.9;;
58306;SDS011;44116;50.884;4.768;2024-02-21T02:54:59;22.4;;;10.4;;
58306;SDS011;44116;50.884;4.768;2024-02-21T02:56:58;19.9;;;9.7;;
58306;SDS011;44116;50.884;4.768;2024-02-21T02:58:58;26.2;;;10.3;;
58306;SDS011;44116;50.884;4.768;2024-02-21T03:00:57;20.6;;;9.5;;
58306;SDS011;44116;50.884;4.768;2024-02-21T03:02:57;20.4;;;9.1;;
58306;SDS011;44116;50.884;4.768;2024-02-21T03:04:57;24.1;;;9.7;;
58306;SDS011;44116;50.884;4.768;2024-02-21T03:06:56;22.1;;;9.8;;
58306;SDS011;44116;50.884;4.768;2024-02-21T03:08:56;20.5;;;9.6;;
58306;SDS011;44116;50.884;4.768;2024-02-21T03:10:56;22.1;;;8.7;;
58306;SDS011;44116;50.884;4.768;2024-02-21T03:12:55;23.0;;;9.5;;
58306;SDS011;44116;50.884;4.768;2024-02-21T03:14:55;24.0;;;10.2;;
58306;SDS011;44116;50.884;4.768;2024-02-21T03:16:55;18.9;;;9.2;;
58306;SDS011;44116;50.884;4.768;2024-02-21T03:18:54;21.8;;;9.3;;
58306;SDS011;44116;50.884;4.768;2024-02-21T03:20:54;19.7;;;9.2;;
58306;SDS011;44116;50.884;4.768;2024-02-21T03:24:54;22.9;;;9.3;;
58306;SDS011;44116;50.884;4.768;2024-02-21T03:26:53;20.4;;;8.8;;
58306;SDS011;44116;50.884;4.768;2024-02-21T03:28:53;20.4;;;9.5;;
58306;SDS011;44116;50.884;4.768;2024-02-21T03:30:52;21.6;;;9.2;;
58306;SDS011;44116;50.884;4.768;2024-02-21T03:32:52;21.4;;;9.1;;
58306;SDS011;44116;50.884;4.768;2024-02-21T03:34:52;25.0;;;10.2;;
58306;SDS011;44116;50.884;4.768;2024-02-21T03:36:51;24.1;;;9.5;;
58306;SDS011;44116;50.884;4.768;2024-02-21T03:38:51;20.0;;;9.4;;
58306;SDS011;44116;50.884;4.768;2024-02-21T03:40:51;19.2;;;9.2;;
58306;SDS011;44116;50.884;4.768;2024-02-21T03:42:50;23.6;;;9.9;;
58306;SDS011;44116;50.884;4.768;2024-02-21T03:44:50;22.7;;;9.1;;
58306;SDS011;44116;50.884;4.768;2024-02-21T03:48:50;22.0;;;9.7;;
58306;SDS011;44116;50.884;4.768;2024-02-21T03:50:51;20.3;;;9.9;;
58306;SDS011;44116;50.884;4.768;2024-02-21T03:52:49;19.6;;;9.6;;
58306;SDS011;44116;50.884;4.768;2024-02-21T03:54:49;20.1;;;8.8;;
58306;SDS011;44116;50.884;4.768;2024-02-21T03:56:48;25.4;;;9.5;;
58306;SDS011;44116;50.884;4.768;2024-02-21T04:00:48;22.1;;;9.6;;
58306;SDS011;44116;50.884;4.768;2024-02-21T04:02:47;20.7;;;8.9;;
58306;SDS011;44116;50.884;4.768;2024-02-21T04:04:47;20.1;;;8.7;;
58306;SDS011;44116;50.884;4.768;2024-02-21T04:06:47;19.1;;;9.3;;
58306;SDS011;44116;50.884;4.768;2024-02-21T04:10:47;24.8;;;9.0;;
58306;SDS011;44116;50.884;4.768;2024-02-21T04:12:45;20.0;;;9.1;;
58306;SDS011;44116;50.884;4.768;2024-02-21T04:14:45;23.2;;;9.5;;
58306;SDS011;44116;50.884;4.768;2024-02-21T04:16:45;21.8;;;9.2;;
58306;SDS011;44116;50.884;4.768;2024-02-21T04:18:44;23.9;;;9.0;;
58306;SDS011;44116;50.884;4.768;2024-02-21T04:22:44;20.1;;;9.2;;
58306;SDS011;44116;50.884;4.768;2024-02-21T04:24:43;22.3;;;9.5;;
58306;SDS011;44116;50.884;4.768;2024-02-21T04:26:43;20.0;;;9.3;;
58306;SDS011;44116;50.884;4.768;2024-02-21T04:28:44;20.2;;;9.1;;
58306;SDS011;44116;50.884;4.768;2024-02-21T04:30:42;27.7;;;9.8;;
58306;SDS011;44116;50.884;4.768;2024-02-21T04:32:42;19.6;;;9.3;;
58306;SDS011;44116;50.884;4.768;2024-02-21T04:34:42;21.5;;;9.6;;
58306;SDS011;44116;50.884;4.768;2024-02-21T04:36:41;18.9;;;9.8;;
58306;SDS011;44116;50.884;4.768;2024-02-21T04:38:41;23.4;;;9.9;;
58306;SDS011;44116;50.884;4.768;2024-02-21T04:40:41;21.9;;;10.1;;
58306;SDS011;44116;50.884;4.768;2024-02-21T04:42:40;19.6;;;9.7;;
58306;SDS011;44116;50.884;4.768;2024-02-21T04:44:40;19.4;;;9.2;;
58306;SDS011;44116;50.884;4.768;2024-02-21T04:46:42;21.3;;;9.3;;
58306;SDS011;44116;50.884;4.768;2024-02-21T04:48:39;19.1;;;9.1;;
58306;SDS011;44116;50.884;4.768;2024-02-21T04:50:39;22.7;;;10.1;;
58306;SDS011;44116;50.884;4.768;2024-02-21T04:52:39;22.1;;;9.8;;
58306;SDS011;44116;50.884;4.768;2024-02-21T04:54:38;20.0;;;8.8;;
58306;SDS011;44116;50.884;4.768;2024-02-21T04:56:38;19.3;;;9.4;;
58306;SDS011;44116;50.884;4.768;2024-02-21T04:58:38;18.8;;;9.3;;
58306;SDS011;44116;50.884;4.768;2024-02-21T05:00:37;21.7;;;9.9;;
58306;SDS011;44116;50.884;4.768;2024-02-21T05:02:37;18.8;;;9.6;;
58306;SDS011;44116;50.884;4.768;2024-02-21T05:04:37;17.8;;;9.2;;
58306;SDS011;44116;50.884;4.768;2024-02-21T05:06:37;18.3;;;8.7;;
58306;SDS011;44116;50.884;4.768;2024-02-21T05:08:36;20.6;;;10.0;;
58306;SDS011;44116;50.884;4.768;2024-02-21T05:10:36;22.4;;;9.2;;
58306;SDS011;44116;50.884;4.768;2024-02-21T05:12:35;20.4;;;9.0;;
58306;SDS011;44116;50.884;4.768;2024-02-21T05:16:35;19.4;;;9.2;;
58306;SDS011;44116;50.884;4.768;2024-02-21T05:18:34;20.9;;;8.9;;
58306;SDS011;44116;50.884;4.768;2024-02-21T05:20:34;19.9;;;8.0;;
58306;SDS011;44116;50.884;4.768;2024-02-21T05:22:33;20.5;;;8.8;;
58306;SDS011;44116;50.884;4.768;2024-02-21T05:24:33;18.1;;;8.9;;
58306;SDS011;44116;50.884;4.768;2024-02-21T05:26:33;20.8;;;8.4;;
58306;SDS011;44116;50.884;4.768;2024-02-21T05:28:33;17.9;;;8.5;;
58306;SDS011;44116;50.884;4.768;2024-02-21T05:30:32;21.4;;;9.0;;
58306;SDS011;44116;50.884;4.768;2024-02-21T05:32:32;18.9;;;8.7;;
58306;SDS011;44116;50.884;4.768;2024-02-21T05:34:31;17.2;;;8.5;;
58306;SDS011;44116;50.884;4.768;2024-02-21T05:36:31;19.0;;;8.3;;
58306;SDS011;44116;50.884;4.768;2024-02-21T05:38:31;16.2;;;8.2;;
58306;SDS011;44116;50.884;4.768;2024-02-21T05:40:30;18.6;;;8.8;;
58306;SDS011;44116;50.884;4.768;2024-02-21T05:42:30;18.3;;;8.1;;
58306;SDS011;44116;50.884;4.768;2024-02-21T05:44:30;17.3;;;8.2;;
58306;SDS011;44116;50.884;4.768;2024-02-21T05:46:29;16.0;;;8.0;;
58306;SDS011;44116;50.884;4.768;2024-02-21T05:48:29;16.0;;;7.8;;
58306;SDS011;44116;50.884;4.768;2024-02-21T05:50:29;17.0;;;8.4;;
58306;SDS011;44116;50.884;4.768;2024-02-21T05:52:28;16.7;;;8.1;;
58306;SDS011;44116;50.884;4.768;2024-02-21T05:54:28;14.7;;;8.0;;
58306;SDS011;44116;50.884;4.768;2024-02-21T05:56:28;15.9;;;8.3;;
58306;SDS011;44116;50.884;4.768;2024-02-21T05:58:27;15.4;;;8.2;;
58306;SDS011;44116;50.884;4.768;2024-02-21T06:00:27;16.5;;;8.4;;
58306;SDS011;44116;50.884;4.768;2024-02-21T06:02:27;14.3;;;7.5;;
58306;SDS011;44116;50.884;4.768;2024-02-21T06:04:26;16.1;;;7.4;;
58306;SDS011;44116;50.884;4.768;2024-02-21T06:06:26;15.6;;;7.6;;
58306;SDS011;44116;50.884;4.768;2024-02-21T06:08:26;16.7;;;7.1;;
58306;SDS011;44116;50.884;4.768;2024-02-21T06:10:25;15.0;;;7.4;;
58306;SDS011;44116;50.884;4.768;2024-02-21T06:12:25;16.5;;;7.8;;
58306;SDS011;44116;50.884;4.768;2024-02-21T06:14:24;16.4;;;7.9;;
58306;SDS011;44116;50.884;4.768;2024-02-21T06:16:24;14.4;;;7.8;;
58306;SDS011;44116;50.884;4.768;2024-02-21T06:18:24;16.0;;;7.2;;
58306;SDS011;44116;50.884;4.768;2024-02-21T06:20:23;16.0;;;7.3;;
58306;SDS011;44116;50.884;4.768;2024-02-21T06:22:23;12.2;;;7.6;;
58306;SDS011;44116;50.884;4.768;2024-02-21T06:24:23;14.7;;;7.8;;
58306;SDS011;44116;50.884;4.768;2024-02-21T06:26:22;17.1;;;7.7;;
58306;SDS011;44116;50.884;4.768;2024-02-21T06:28:22;13.8;;;7.0;;
58306;SDS011;44116;50.884;4.768;2024-02-21T06:30:22;14.8;;;7.5;;
58306;SDS011;44116;50.884;4.768;2024-02-21T06:32:21;14.6;;;7.7;;
58306;SDS011;44116;50.884;4.768;2024-02-21T06:34:21;14.8;;;7.6;;
58306;SDS011;44116;50.884;4.768;2024-02-21T06:36:21;16.3;;;7.4;;
58306;SDS011;44116;50.884;4.768;2024-02-21T06:38:20;12.4;;;6.7;;
58306;SDS011;44116;50.884;4.768;2024-02-21T06:42:19;14.7;;;7.6;;
58306;SDS011;44116;50.884;4.768;2024-02-21T06:44:19;14.2;;;7.3;;
58306;SDS011;44116;50.884;4.768;2024-02-21T06:46:23;12.8;;;6.9;;
58306;SDS011;44116;50.884;4.768;2024-02-21T06:48:19;16.7;;;7.8;;
58306;SDS011;44116;50.884;4.768;2024-02-21T06:50:18;17.4;;;7.9;;
58306;SDS011;44116;50.884;4.768;2024-02-21T06:52:18;13.7;;;7.6;;
58306;SDS011;44116;50.884;4.768;2024-02-21T06:54:17;13.4;;;7.1;;
58306;SDS011;44116;50.884;4.768;2024-02-21T06:56:17;14.8;;;7.3;;
58306;SDS011;44116;50.884;4.768;2024-02-21T06:58:17;12.4;;;7.0;;
58306;SDS011;44116;50.884;4.768;2024-02-21T07:00:17;14.2;;;7.9;;
58306;SDS011;44116;50.884;4.768;2024-02-21T07:02:16;14.5;;;7.3;;
58306;SDS011;44116;50.884;4.768;2024-02-21T07:04:16;14.9;;;7.6;;
58306;SDS011;44116;50.884;4.768;2024-02-21T07:06:15;15.1;;;8.0;;
58306;SDS011;44116;50.884;4.768;2024-02-21T07:08:15;14.7;;;7.9;;
58306;SDS011;44116;50.884;4.768;2024-02-21T07:10:15;13.8;;;7.6;;
58306;SDS011;44116;50.884;4.768;2024-02-21T07:12:14;14.3;;;8.3;;
58306;SDS011;44116;50.884;4.768;2024-02-21T07:14:14;15.3;;;8.6;;
58306;SDS011;44116;50.884;4.768;2024-02-21T07:16:13;14.5;;;8.9;;
58306;SDS011;44116;50.884;4.768;2024-02-21T07:18:13;14.2;;;8.8;;
58306;SDS011;44116;50.884;4.768;2024-02-21T07:20:13;16.1;;;9.4;;
58306;SDS011;44116;50.884;4.768;2024-02-21T07:22:12;16.0;;;9.0;;
58306;SDS011;44116;50.884;4.768;2024-02-21T07:24:12;14.7;;;8.8;;
58306;SDS011;44116;50.884;4.768;2024-02-21T07:26:14;15.7;;;9.1;;
58306;SDS011;44116;50.884;4.768;2024-02-21T07:28:11;14.2;;;8.7;;
58306;SDS011;44116;50.884;4.768;2024-02-21T07:30:12;19.5;;;9.0;;
58306;SDS011;44116;50.884;4.768;2024-02-21T07:32:12;16.4;;;8.9;;
58306;SDS011;44116;50.884;4.768;2024-02-21T07:34:10;16.8;;;9.4;;
58306;SDS011;44116;50.884;4.768;2024-02-21T07:36:11;16.0;;;9.6;;
58306;SDS011;44116;50.884;4.768;2024-02-21T07:38:12;18.3;;;10.1;;
58306;SDS011;44116;50.884;4.768;2024-02-21T07:40:12;17.6;;;10.0;;
58306;SDS011;44116;50.884;4.768;2024-02-21T07:42:09;14.1;;;9.5;;
58306;SDS011;44116;50.884;4.768;2024-02-21T07:44:08;21.5;;;10.1;;
58306;SDS011;44116;50.884;4.768;2024-02-21T07:46:08;18.4;;;10.8;;
58306;SDS011;44116;50.884;4.768;2024-02-21T07:48:08;17.1;;;9.5;;
58306;SDS011;44116;50.884;4.768;2024-02-21T07:50:08;17.6;;;10.0;;
58306;SDS011;44116;50.884;4.768;2024-02-21T07:54:07;16.6;;;9.8;;
58306;SDS011;44116;50.884;4.768;2024-02-21T07:56:06;19.6;;;10.8;;
58306;SDS011;44116;50.884;4.768;2024-02-21T07:58:06;16.3;;;9.6;;
58306;SDS011;44116;50.884;4.768;2024-02-21T08:00:07;16.8;;;9.5;;
58306;SDS011;44116;50.884;4.768;2024-02-21T08:02:05;17.2;;;9.7;;
58306;SDS011;44116;50.884;4.768;2024-02-21T08:04:05;18.4;;;10.1;;
58306;SDS011;44116;50.884;4.768;2024-02-21T08:06:05;18.0;;;9.4;;
58306;SDS011;44116;50.884;4.768;2024-02-21T08:10:04;17.5;;;9.0;;
58306;SDS011;44116;50.884;4.768;2024-02-21T08:12:04;15.2;;;9.3;;
58306;SDS011;44116;50.884;4.768;2024-02-21T08:14:03;17.3;;;8.9;;
58306;SDS011;44116;50.884;4.768;2024-02-21T08:16:03;17.8;;;9.1;;
58306;SDS011;44116;50.884;4.768;2024-02-21T08:18:03;15.9;;;8.5;;
58306;SDS011;44116;50.884;4.768;2024-02-21T08:20:03;18.6;;;9.0;;
58306;SDS011;44116;50.884;4.768;2024-02-21T08:22:02;17.3;;;8.2;;
58306;SDS011;44116;50.884;4.768;2024-02-21T08:26:02;14.2;;;7.7;;
58306;SDS011;44116;50.884;4.768;2024-02-21T08:28:01;17.9;;;8.0;;
58306;SDS011;44116;50.884;4.768;2024-02-21T08:30:01;17.5;;;8.6;;
58306;SDS011;44116;50.884;4.768;2024-02-21T08:32:00;19.1;;;8.4;;
58306;SDS011;44116;50.884;4.768;2024-02-21T08:34:01;17.6;;;7.3;;
58306;SDS011;44116;50.884;4.768;2024-02-21T08:35:59;15.5;;;7.7;;
58306;SDS011;44116;50.884;4.768;2024-02-21T08:37:59;13.1;;;7.1;;
58306;SDS011;44116;50.884;4.768;2024-02-21T08:39:59;15.2;;;7.5;;
58306;SDS011;44116;50.884;4.768;2024-02-21T08:41:58;14.8;;;7.2;;
58306;SDS011;44116;50.884;4.768;2024-02-21T08:43:58;17.2;;;7.1;;
58306;SDS011;44116;50.884;4.768;2024-02-21T08:45:58;14.7;;;6.8;;
58306;SDS011;44116;50.884;4.768;2024-02-21T08:47:57;14.4;;;7.2;;
58306;SDS011;44116;50.884;4.768;2024-02-21T08:49:57;19.1;;;7.4;;
58306;SDS011;44116;50.884;4.768;2024-02-21T08:51:57;15.2;;;6.4;;
58306;SDS011;44116;50.884;4.768;2024-02-21T08:53:58;12.3;;;6.5;;
58306;SDS011;44116;50.884;4.768;2024-02-21T08:55:56;9.9;;;5.9;;
58306;SDS011;44116;50.884;4.768;2024-02-21T08:57:55;17.0;;;6.4;;
58306;SDS011;44116;50.884;4.768;2024-02-21T08:59:55;16.7;;;6.7;;
58306;SDS011;44116;50.884;4.768;2024-02-21T09:01:55;14.4;;;6.2;;
58306;SDS011;44116;50.884;4.768;2024-02-21T09:03:54;13.0;;;5.8;;
58306;SDS011;44116;50.884;4.768;2024-02-21T09:05:54;18.2;;;6.0;;
58306;SDS011;44116;50.884;4.768;2024-02-21T09:07:54;12.3;;;5.8;;
58306;SDS011;44116;50.884;4.768;2024-02-21T09:09:53;11.9;;;5.7;;
58306;SDS011;44116;50.884;4.768;2024-02-21T09:11:53;13.9;;;6.2;;
58306;SDS011;44116;50.884;4.768;2024-02-21T09:13:53;11.2;;;5.4;;
58306;SDS011;44116;50.884;4.768;2024-02-21T09:15:52;14.0;;;5.9;;
58306;SDS011;44116;50.884;4.768;2024-02-21T09:17:52;13.3;;;5.7;;
58306;SDS011;44116;50.884;4.768;2024-02-21T09:19:52;15.2;;;6.0;;
58306;SDS011;44116;50.884;4.768;2024-02-21T09:21:51;12.5;;;5.3;;
58306;SDS011;44116;50.884;4.768;2024-02-21T09:25:51;10.1;;;5.5;;
58306;SDS011;44116;50.884;4.768;2024-02-21T09:27:50;9.9;;;5.3;;
58306;SDS011;44116;50.884;4.768;2024-02-21T09:29:50;11.9;;;5.1;;
58306;SDS011;44116;50.884;4.768;2024-02-21T09:31:50;12.4;;;5.3;;
58306;SDS011;44116;50.884;4.768;2024-02-21T09:33:49;12.3;;;5.8;;
58306;SDS011;44116;50.884;4.768;2024-02-21T09:35:49;11.6;;;5.4;;
58306;SDS011;44116;50.884;4.768;2024-02-21T09:37:48;10.2;;;4.8;;
58306;SDS011;44116;50.884;4.768;2024-02-21T09:39:48;13.3;;;5.5;;
58306;SDS011;44116;50.884;4.768;2024-02-21T09:41:50;10.9;;;5.0;;
58306;SDS011;44116;50.884;4.768;2024-02-21T09:45:48;8.8;;;4.8;;
58306;SDS011;44116;50.884;4.768;2024-02-21T09:47:58;11.1;;;5.1;;
58306;SDS011;44116;50.884;4.768;2024-02-21T09:53:47;11.1;;;4.9;;
58306;SDS011;44116;50.884;4.768;2024-02-21T09:55:46;12.6;;;5.3;;
58306;SDS011;44116;50.884;4.768;2024-02-21T09:57:45;11.9;;;5.2;;
58306;SDS011;44116;50.884;4.768;2024-02-21T10:01:45;9.4;;;4.7;;
58306;SDS011;44116;50.884;4.768;2024-02-21T10:03:44;8.3;;;4.4;;
58306;SDS011;44116;50.884;4.768;2024-02-21T10:07:44;9.6;;;4.9;;
58306;SDS011;44116;50.884;4.768;2024-02-21T10:09:43;12.6;;;4.7;;
58306;SDS011;44116;50.884;4.768;2024-02-21T10:11:43;10.2;;;4.4;;
58306;SDS011;44116;50.884;4.768;2024-02-21T10:13:43;10.1;;;4.8;;
58306;SDS011;44116;50.884;4.768;2024-02-21T10:15:42;9.0;;;4.7;;
58306;SDS011;44116;50.884;4.768;2024-02-21T10:17:42;12.0;;;4.9;;
58306;SDS011;44116;50.884;4.768;2024-02-21T10:19:42;14.4;;;4.8;;
58306;SDS011;44116;50.884;4.768;2024-02-21T10:21:41;13.4;;;5.2;;
58306;SDS011;44116;50.884;4.768;2024-02-21T10:23:42;14.0;;;5.5;;
58306;SDS011;44116;50.884;4.768;2024-02-21T10:25:41;11.7;;;4.8;;
58306;SDS011;44116;50.884;4.768;2024-02-21T10:29:40;13.6;;;5.1;;
58306;SDS011;44116;50.884;4.768;2024-02-21T10:31:40;9.5;;;4.6;;
58306;SDS011;44116;50.884;4.768;2024-02-21T10:33:39;11.8;;;4.2;;
58306;SDS011;44116;50.884;4.768;2024-02-21T10:35:39;12.5;;;5.3;;
58306;SDS011;44116;50.884;4.768;2024-02-21T10:37:39;12.7;;;5.8;;
58306;SDS011;44116;50.884;4.768;2024-02-21T10:39:40;12.3;;;4.3;;
58306;SDS011;44116;50.884;4.768;2024-02-21T10:41:39;12.2;;;4.8;;
58306;SDS011;44116;50.884;4.768;2024-02-21T10:43:39;11.8;;;4.5;;
58306;SDS011;44116;50.884;4.768;2024-02-21T10:45:38;10.8;;;4.4;;
58306;SDS011;44116;50.884;4.768;2024-02-21T10:47:38;12.0;;;4.6;;
58306;SDS011;44116;50.884;4.768;2024-02-21T10:49:39;11.4;;;4.5;;
58306;SDS011;44116;50.884;4.768;2024-02-21T10:51:43;8.6;;;3.9;;
58306;SDS011;44116;50.884;4.768;2024-02-21T10:53:44;13.6;;;4.8;;
58306;SDS011;44116;50.884;4.768;2024-02-21T10:55:40;11.6;;;4.3;;
58306;SDS011;44116;50.884;4.768;2024-02-21T10:57:37;14.2;;;5.1;;
58306;SDS011;44116;50.884;4.768;2024-02-21T10:59:37;11.2;;;4.4;;
58306;SDS011;44116;50.884;4.768;2024-02-21T11:01:35;11.9;;;4.7;;
58306;SDS011;44116;50.884;4.768;2024-02-21T11:03:35;13.2;;;4.5;;
58306;SDS011;44116;50.884;4.768;2024-02-21T11:05:35;8.2;;;3.7;;
58306;SDS011;44116;50.884;4.768;2024-02-21T11:07:35;12.6;;;4.3;;
58306;SDS011;44116;50.884;4.768;2024-02-21T11:09:34;11.0;;;4.5;;
58306;SDS011;44116;50.884;4.768;2024-02-21T11:11:34;12.1;;;4.2;;
58306;SDS011;44116;50.884;4.768;2024-02-21T11:15:33;14.6;;;4.3;;
58306;SDS011;44116;50.884;4.768;2024-02-21T11:17:33;13.4;;;4.5;;
58306;SDS011;44116;50.884;4.768;2024-02-21T11:19:32;9.3;;;3.8;;
58306;SDS011;44116;50.884;4.768;2024-02-21T11:21:33;10.3;;;4.0;;
58306;SDS011;44116;50.884;4.768;2024-02-21T11:23:32;10.2;;;3.8;;
58306;SDS011;44116;50.884;4.768;2024-02-21T11:25:31;10.4;;;3.9;;
58306;SDS011;44116;50.884;4.768;2024-02-21T11:27:33;9.0;;;3.8;;
58306;SDS011;44116;50.884;4.768;2024-02-21T11:29:31;11.8;;;3.7;;
58306;SDS011;44116;50.884;4.768;2024-02-21T11:31:38;11.2;;;3.9;;
58306;SDS011;44116;50.884;4.768;2024-02-21T11:33:30;10.5;;;3.8;;
58306;SDS011;44116;50.884;4.768;2024-02-21T11:39:29;8.4;;;3.3;;
58306;SDS011;44116;50.884;4.768;2024-02-21T11:41:29;11.5;;;3.5;;
58306;SDS011;44116;50.884;4.768;2024-02-21T11:43:29;9.8;;;3.2;;
58306;SDS011;44116;50.884;4.768;2024-02-21T11:45:28;10.2;;;3.4;;
58306;SDS011;44116;50.884;4.768;2024-02-21T11:47:28;8.4;;;3.3;;
58306;SDS011;44116;50.884;4.768;2024-02-21T11:49:29;9.9;;;3.4;;
58306;SDS011;44116;50.884;4.768;2024-02-21T11:53:27;10.4;;;3.3;;
58306;SDS011;44116;50.884;4.768;2024-02-21T11:55:27;9.0;;;3.2;;
58306;SDS011;44116;50.884;4.768;2024-02-21T11:57:27;7.4;;;3.0;;
58306;SDS011;44116;50.884;4.768;2024-02-21T11:59:26;9.1;;;3.5;;
58306;SDS011;44116;50.884;4.768;2024-02-21T12:03:26;8.2;;;3.9;;
58306;SDS011;44116;50.884;4.768;2024-02-21T12:05:25;9.7;;;3.4;;
58306;SDS011;44116;50.884;4.768;2024-02-21T12:07:25;10.4;;;3.5;;
58306;SDS011;44116;50.884;4.768;2024-02-21T12:11:24;6.3;;;3.2;;
58306;SDS011;44116;50.884;4.768;2024-02-21T12:15:24;6.5;;;3.4;;
58306;SDS011;44116;50.884;4.768;2024-02-21T12:17:23;6.6;;;3.7;;
58306;SDS011;44116;50.884;4.768;2024-02-21T12:19:23;8.3;;;2.9;;
58306;SDS011;44116;50.884;4.768;2024-02-21T12:21:23;12.4;;;4.1;;
58306;SDS011;44116;50.884;4.768;2024-02-21T12:23:26;9.5;;;3.6;;
58306;SDS011;44116;50.884;4.768;2024-02-21T12:25:22;8.2;;;3.9;;
58306;SDS011;44116;50.884;4.768;2024-02-21T12:27:22;9.6;;;3.5;;
58306;SDS011;44116;50.884;4.768;2024-02-21T12:29:22;9.4;;;3.6;;
58306;SDS011;44116;50.884;4.768;2024-02-21T12:31:21;9.0;;;3.4;;
58306;SDS011;44116;50.884;4.768;2024-02-21T12:37:22;6.4;;;3.3;;
58306;SDS011;44116;50.884;4.768;2024-02-21T12:39:20;10.0;;;3.4;;
58306;SDS011;44116;50.884;4.768;2024-02-21T12:41:20;9.6;;;3.8;;
58306;SDS011;44116;50.884;4.768;2024-02-21T12:43:19;8.6;;;3.7;;
58306;SDS011;44116;50.884;4.768;2024-02-21T12:45:19;8.0;;;3.4;;
58306;SDS011;44116;50.884;4.768;2024-02-21T12:47:19;8.1;;;3.5;;
58306;SDS011;44116;50.884;4.768;2024-02-21T12:49:19;9.9;;;3.4;;
58306;SDS011;44116;50.884;4.768;2024-02-21T12:51:18;11.7;;;4.2;;
58306;SDS011;44116;50.884;4.768;2024-02-21T12:53:19;11.6;;;3.8;;
58306;SDS011;44116;50.884;4.768;2024-02-21T12:55:18;7.5;;;3.5;;
58306;SDS011;44116;50.884;4.768;2024-02-21T12:57:17;11.5;;;3.9;;
58306;SDS011;44116;50.884;4.768;2024-02-21T12:59:17;10.2;;;3.6;;
58306;SDS011;44116;50.884;4.768;2024-02-21T13:01:17;7.7;;;3.3;;
58306;SDS011;44116;50.884;4.768;2024-02-21T13:03:17;8.7;;;4.0;;
58306;SDS011;44116;50.884;4.768;2024-02-21T13:05:16;8.2;;;3.7;;
58306;SDS011;44116;50.884;4.768;2024-02-21T13:07:16;10.2;;;3.8;;
58306;SDS011;44116;50.884;4.768;2024-02-21T13:09:16;7.5;;;3.7;;
58306;SDS011;44116;50.884;4.768;2024-02-21T13:11:15;8.4;;;3.8;;
58306;SDS011;44116;50.884;4.768;2024-02-21T13:13:15;9.2;;;3.6;;
58306;SDS011;44116;50.884;4.768;2024-02-21T13:15:15;10.0;;;4.0;;